sensor_id;sensor_type;location;lat;lon;timestamp;temperature;humidity
72380;SHT30;60354;47.798;12.472;2022-12-18T00:01:46;-5.96;89.23
72380;SHT30;60354;47.798;12.472;2022-12-18T00:04:20;-6.02;88.14
72380;SHT30;60354;47.798;12.472;2022-12-18T00:06:45;-6.11;86.60
72380;SHT30;60354;47.798;12.472;2022-12-18T00:09:11;-6.09;87.10
72380;SHT30;60354;47.798;12.472;2022-12-18T00:11:36;-6.05;83.42
72380;SHT30;60354;47.798;12.472;2022-12-18T00:14:02;-6.17;83.18
72380;SHT30;60354;47.798;12.472;2022-12-18T00:16:29;-6.20;87.78
72380;SHT30;60354;47.798;12.472;2022-12-18T00:18:56;-6.16;85.20
72380;SHT30;60354;47.798;12.472;2022-12-18T00:21:26;-6.11;85.29
72380;SHT30;60354;47.798;12.472;2022-12-18T00:23:53;-6.03;89.45
72380;SHT30;60354;47.798;12.472;2022-12-18T00:26:22;-6.07;89.41
72380;SHT30;60354;47.798;12.472;2022-12-18T00:28:51;-6.06;87.58
72380;SHT30;60354;47.798;12.472;2022-12-18T00:31:19;-6.17;85.43
72380;SHT30;60354;47.798;12.472;2022-12-18T00:33:45;-5.95;88.91
72380;SHT30;60354;47.798;12.472;2022-12-18T00:38:38;-5.96;83.26
72380;SHT30;60354;47.798;12.472;2022-12-18T00:41:04;-5.96;85.29
72380;SHT30;60354;47.798;12.472;2022-12-18T00:43:30;-6.09;82.83
72380;SHT30;60354;47.798;12.472;2022-12-18T00:45:55;-6.16;82.82
72380;SHT30;60354;47.798;12.472;2022-12-18T00:48:21;-6.10;83.29
72380;SHT30;60354;47.798;12.472;2022-12-18T00:50:48;-6.38;83.00
72380;SHT30;60354;47.798;12.472;2022-12-18T00:53:14;-6.42;84.07
72380;SHT30;60354;47.798;12.472;2022-12-18T00:55:40;-6.45;87.32
72380;SHT30;60354;47.798;12.472;2022-12-18T00:58:07;-6.34;85.35
72380;SHT30;60354;47.798;12.472;2022-12-18T01:00:34;-6.48;85.28
72380;SHT30;60354;47.798;12.472;2022-12-18T01:03:00;-6.47;83.26
72380;SHT30;60354;47.798;12.472;2022-12-18T01:05:26;-6.52;83.21
72380;SHT30;60354;47.798;12.472;2022-12-18T01:07:51;-6.61;85.49
72380;SHT30;60354;47.798;12.472;2022-12-18T01:10:18;-6.51;86.82
72380;SHT30;60354;47.798;12.472;2022-12-18T01:12:44;-6.48;82.63
72380;SHT30;60354;47.798;12.472;2022-12-18T01:15:11;-6.48;87.88
72380;SHT30;60354;47.798;12.472;2022-12-18T01:17:37;-6.58;83.88
72380;SHT30;60354;47.798;12.472;2022-12-18T01:20:03;-6.65;86.26
72380;SHT30;60354;47.798;12.472;2022-12-18T01:22:29;-7.12;85.21
72380;SHT30;60354;47.798;12.472;2022-12-18T01:24:54;-7.26;84.57
72380;SHT30;60354;47.798;12.472;2022-12-18T01:27:21;-7.29;86.73
72380;SHT30;60354;47.798;12.472;2022-12-18T01:29:47;-7.43;88.95
72380;SHT30;60354;47.798;12.472;2022-12-18T01:32:14;-7.46;88.08
72380;SHT30;60354;47.798;12.472;2022-12-18T01:34:40;-7.47;86.38
72380;SHT30;60354;47.798;12.472;2022-12-18T01:37:05;-7.51;88.58
72380;SHT30;60354;47.798;12.472;2022-12-18T01:39:32;-7.31;85.41
72380;SHT30;60354;47.798;12.472;2022-12-18T01:41:59;-7.27;85.86
72380;SHT30;60354;47.798;12.472;2022-12-18T01:47:32;-7.16;84.10
72380;SHT30;60354;47.798;12.472;2022-12-18T01:52:40;-6.98;84.83
72380;SHT30;60354;47.798;12.472;2022-12-18T01:55:08;-6.95;82.59
72380;SHT30;60354;47.798;12.472;2022-12-18T01:57:34;-7.17;87.48
72380;SHT30;60354;47.798;12.472;2022-12-18T02:00:10;-7.08;84.14
72380;SHT30;60354;47.798;12.472;2022-12-18T02:02:41;-7.06;86.47
72380;SHT30;60354;47.798;12.472;2022-12-18T02:05:07;-7.34;80.58
72380;SHT30;60354;47.798;12.472;2022-12-18T02:10:33;-7.43;82.45
72380;SHT30;60354;47.798;12.472;2022-12-18T02:13:19;-7.22;86.18
72380;SHT30;60354;47.798;12.472;2022-12-18T02:18:24;-7.36;84.62
72380;SHT30;60354;47.798;12.472;2022-12-18T02:21:07;-7.50;80.88
72380;SHT30;60354;47.798;12.472;2022-12-18T02:26:56;-7.51;82.60
72380;SHT30;60354;47.798;12.472;2022-12-18T02:29:40;-7.58;80.30
72380;SHT30;60354;47.798;12.472;2022-12-18T02:32:15;-7.62;84.59
72380;SHT30;60354;47.798;12.472;2022-12-18T02:34:43;-7.48;81.20
72380;SHT30;60354;47.798;12.472;2022-12-18T02:37:16;-7.62;80.53
72380;SHT30;60354;47.798;12.472;2022-12-18T02:39:44;-7.55;79.87
72380;SHT30;60354;47.798;12.472;2022-12-18T02:42:12;-7.43;79.85
72380;SHT30;60354;47.798;12.472;2022-12-18T02:44:45;-7.31;83.22
72380;SHT30;60354;47.798;12.472;2022-12-18T02:47:12;-7.34;84.05
72380;SHT30;60354;47.798;12.472;2022-12-18T03:00:34;-7.33;80.93
72380;SHT30;60354;47.798;12.472;2022-12-18T03:10:50;-7.89;83.27
72380;SHT30;60354;47.798;12.472;2022-12-18T03:13:22;-8.11;83.99
72380;SHT30;60354;47.798;12.472;2022-12-18T03:15:52;-8.16;84.13
72380;SHT30;60354;47.798;12.472;2022-12-18T03:18:24;-8.25;85.68
72380;SHT30;60354;47.798;12.472;2022-12-18T03:20:53;-8.16;83.44
72380;SHT30;60354;47.798;12.472;2022-12-18T03:23:23;-7.99;86.21
72380;SHT30;60354;47.798;12.472;2022-12-18T03:25:52;-8.03;86.52
72380;SHT30;60354;47.798;12.472;2022-12-18T03:28:21;-8.28;81.26
72380;SHT30;60354;47.798;12.472;2022-12-18T03:30:56;-8.03;85.71
72380;SHT30;60354;47.798;12.472;2022-12-18T03:36:02;-7.94;81.37
72380;SHT30;60354;47.798;12.472;2022-12-18T03:38:28;-7.74;84.49
72380;SHT30;60354;47.798;12.472;2022-12-18T03:43:50;-8.39;84.19
72380;SHT30;60354;47.798;12.472;2022-12-18T03:49:24;-8.50;85.27
72380;SHT30;60354;47.798;12.472;2022-12-18T03:54:23;-8.46;83.88
72380;SHT30;60354;47.798;12.472;2022-12-18T03:57:01;-8.73;81.81
72380;SHT30;60354;47.798;12.472;2022-12-18T03:59:29;-8.81;85.78
72380;SHT30;60354;47.798;12.472;2022-12-18T04:01:57;-8.64;87.63
72380;SHT30;60354;47.798;12.472;2022-12-18T04:04:25;-8.54;87.38
72380;SHT30;60354;47.798;12.472;2022-12-18T04:06:53;-8.47;85.34
72380;SHT30;60354;47.798;12.472;2022-12-18T04:09:19;-8.61;86.28
72380;SHT30;60354;47.798;12.472;2022-12-18T04:11:47;-8.64;82.99
72380;SHT30;60354;47.798;12.472;2022-12-18T04:14:14;-8.49;83.49
72380;SHT30;60354;47.798;12.472;2022-12-18T04:16:40;-8.42;86.70
72380;SHT30;60354;47.798;12.472;2022-12-18T04:19:09;-8.13;88.87
72380;SHT30;60354;47.798;12.472;2022-12-18T04:21:38;-8.33;84.03
72380;SHT30;60354;47.798;12.472;2022-12-18T04:24:05;-8.20;84.83
72380;SHT30;60354;47.798;12.472;2022-12-18T04:26:32;-8.11;83.94
72380;SHT30;60354;47.798;12.472;2022-12-18T04:29:08;-8.16;83.71
72380;SHT30;60354;47.798;12.472;2022-12-18T04:31:34;-8.15;85.17
72380;SHT30;60354;47.798;12.472;2022-12-18T04:34:01;-8.22;87.28
72380;SHT30;60354;47.798;12.472;2022-12-18T04:36:27;-8.15;86.99
72380;SHT30;60354;47.798;12.472;2022-12-18T04:38:54;-8.06;86.25
72380;SHT30;60354;47.798;12.472;2022-12-18T04:41:20;-8.05;85.06
72380;SHT30;60354;47.798;12.472;2022-12-18T04:43:47;-7.95;82.87
72380;SHT30;60354;47.798;12.472;2022-12-18T04:46:13;-8.05;81.53
72380;SHT30;60354;47.798;12.472;2022-12-18T04:48:39;-8.02;84.01
72380;SHT30;60354;47.798;12.472;2022-12-18T04:51:06;-8.02;81.84
72380;SHT30;60354;47.798;12.472;2022-12-18T04:53:32;-8.30;83.69
72380;SHT30;60354;47.798;12.472;2022-12-18T04:56:09;-8.28;87.26
72380;SHT30;60354;47.798;12.472;2022-12-18T04:58:36;-8.32;84.21
72380;SHT30;60354;47.798;12.472;2022-12-18T05:01:01;-7.94;87.92
72380;SHT30;60354;47.798;12.472;2022-12-18T05:03:29;-8.08;86.95
72380;SHT30;60354;47.798;12.472;2022-12-18T05:05:54;-8.05;87.54
72380;SHT30;60354;47.798;12.472;2022-12-18T05:08:20;-8.01;84.24
72380;SHT30;60354;47.798;12.472;2022-12-18T05:10:46;-8.05;82.31
72380;SHT30;60354;47.798;12.472;2022-12-18T05:13:11;-8.02;85.96
72380;SHT30;60354;47.798;12.472;2022-12-18T05:15:36;-7.88;87.64
72380;SHT30;60354;47.798;12.472;2022-12-18T05:18:03;-7.99;83.21
72380;SHT30;60354;47.798;12.472;2022-12-18T05:20:29;-7.95;86.60
72380;SHT30;60354;47.798;12.472;2022-12-18T05:22:54;-8.01;85.78
72380;SHT30;60354;47.798;12.472;2022-12-18T05:25:20;-8.23;79.86
72380;SHT30;60354;47.798;12.472;2022-12-18T05:27:46;-8.26;80.57
72380;SHT30;60354;47.798;12.472;2022-12-18T05:30:13;-8.18;84.39
72380;SHT30;60354;47.798;12.472;2022-12-18T05:32:39;-8.18;80.06
72380;SHT30;60354;47.798;12.472;2022-12-18T05:35:07;-8.23;81.03
72380;SHT30;60354;47.798;12.472;2022-12-18T05:37:33;-8.15;81.69
72380;SHT30;60354;47.798;12.472;2022-12-18T05:39:58;-8.05;82.51
72380;SHT30;60354;47.798;12.472;2022-12-18T05:42:24;-8.09;81.25
72380;SHT30;60354;47.798;12.472;2022-12-18T05:44:49;-8.09;80.52
72380;SHT30;60354;47.798;12.472;2022-12-18T05:47:15;-8.16;85.40
72380;SHT30;60354;47.798;12.472;2022-12-18T05:49:40;-8.05;85.91
72380;SHT30;60354;47.798;12.472;2022-12-18T05:52:06;-8.12;84.99
72380;SHT30;60354;47.798;12.472;2022-12-18T05:54:32;-8.19;83.68
72380;SHT30;60354;47.798;12.472;2022-12-18T05:56:57;-8.28;81.95
72380;SHT30;60354;47.798;12.472;2022-12-18T05:59:23;-8.46;78.93
72380;SHT30;60354;47.798;12.472;2022-12-18T06:01:49;-8.18;82.91
72380;SHT30;60354;47.798;12.472;2022-12-18T06:04:14;-8.39;80.59
72380;SHT30;60354;47.798;12.472;2022-12-18T06:06:40;-8.58;80.02
72380;SHT30;60354;47.798;12.472;2022-12-18T06:09:05;-8.44;82.60
72380;SHT30;60354;47.798;12.472;2022-12-18T06:11:37;-8.33;83.90
72380;SHT30;60354;47.798;12.472;2022-12-18T06:14:04;-8.37;80.08
72380;SHT30;60354;47.798;12.472;2022-12-18T06:16:30;-8.36;82.27
72380;SHT30;60354;47.798;12.472;2022-12-18T06:18:57;-8.36;81.14
72380;SHT30;60354;47.798;12.472;2022-12-18T06:21:23;-8.47;80.49
72380;SHT30;60354;47.798;12.472;2022-12-18T06:23:48;-8.43;78.38
72380;SHT30;60354;47.798;12.472;2022-12-18T06:26:14;-8.47;78.94
72380;SHT30;60354;47.798;12.472;2022-12-18T06:28:40;-8.29;84.32
72380;SHT30;60354;47.798;12.472;2022-12-18T06:31:10;-8.22;84.57
72380;SHT30;60354;47.798;12.472;2022-12-18T06:33:36;-8.70;79.28
72380;SHT30;60354;47.798;12.472;2022-12-18T06:36:12;-8.80;84.37
72380;SHT30;60354;47.798;12.472;2022-12-18T06:38:39;-8.88;80.63
72380;SHT30;60354;47.798;12.472;2022-12-18T06:43:34;-8.74;82.37
72380;SHT30;60354;47.798;12.472;2022-12-18T06:46:00;-8.87;81.73
72380;SHT30;60354;47.798;12.472;2022-12-18T06:48:25;-8.56;84.82
72380;SHT30;60354;47.798;12.472;2022-12-18T06:50:51;-8.40;85.07
72380;SHT30;60354;47.798;12.472;2022-12-18T06:53:16;-8.53;82.29
72380;SHT30;60354;47.798;12.472;2022-12-18T06:55:42;-8.71;81.01
72380;SHT30;60354;47.798;12.472;2022-12-18T06:58:08;-8.71;79.82
72380;SHT30;60354;47.798;12.472;2022-12-18T07:00:33;-8.56;80.01
72380;SHT30;60354;47.798;12.472;2022-12-18T07:02:59;-8.51;83.14
72380;SHT30;60354;47.798;12.472;2022-12-18T07:05:24;-8.30;86.05
72380;SHT30;60354;47.798;12.472;2022-12-18T07:07:49;-8.50;81.64
72380;SHT30;60354;47.798;12.472;2022-12-18T07:10:15;-8.63;80.51
72380;SHT30;60354;47.798;12.472;2022-12-18T07:12:40;-8.26;86.37
72380;SHT30;60354;47.798;12.472;2022-12-18T07:15:06;-8.29;82.57
72380;SHT30;60354;47.798;12.472;2022-12-18T07:17:32;-8.65;83.50
72380;SHT30;60354;47.798;12.472;2022-12-18T07:19:58;-8.61;84.46
72380;SHT30;60354;47.798;12.472;2022-12-18T07:22:25;-8.84;81.79
72380;SHT30;60354;47.798;12.472;2022-12-18T07:24:51;-9.08;78.36
72380;SHT30;60354;47.798;12.472;2022-12-18T07:27:16;-9.05;79.00
72380;SHT30;60354;47.798;12.472;2022-12-18T07:29:42;-8.97;79.69
72380;SHT30;60354;47.798;12.472;2022-12-18T07:32:07;-8.90;82.98
72380;SHT30;60354;47.798;12.472;2022-12-18T07:34:34;-8.77;82.01
72380;SHT30;60354;47.798;12.472;2022-12-18T07:36:59;-8.54;80.16
72380;SHT30;60354;47.798;12.472;2022-12-18T07:39:25;-8.63;81.19
72380;SHT30;60354;47.798;12.472;2022-12-18T07:41:51;-8.58;84.48
72380;SHT30;60354;47.798;12.472;2022-12-18T07:44:35;-8.73;84.29
72380;SHT30;60354;47.798;12.472;2022-12-18T07:47:00;-8.65;87.45
72380;SHT30;60354;47.798;12.472;2022-12-18T07:49:26;-8.76;81.01
72380;SHT30;60354;47.798;12.472;2022-12-18T07:51:54;-8.76;80.60
72380;SHT30;60354;47.798;12.472;2022-12-18T07:54:21;-8.53;85.15
72380;SHT30;60354;47.798;12.472;2022-12-18T07:56:47;-8.60;80.82
72380;SHT30;60354;47.798;12.472;2022-12-18T07:59:12;-8.61;82.66
72380;SHT30;60354;47.798;12.472;2022-12-18T08:01:38;-8.60;84.00
72380;SHT30;60354;47.798;12.472;2022-12-18T08:04:03;-8.37;85.53
72380;SHT30;60354;47.798;12.472;2022-12-18T08:06:29;-8.42;81.72
72380;SHT30;60354;47.798;12.472;2022-12-18T08:08:55;-8.57;77.57
72380;SHT30;60354;47.798;12.472;2022-12-18T08:11:22;-8.43;78.65
72380;SHT30;60354;47.798;12.472;2022-12-18T08:13:48;-8.34;81.59
72380;SHT30;60354;47.798;12.472;2022-12-18T08:16:13;-8.49;78.20
72380;SHT30;60354;47.798;12.472;2022-12-18T08:18:39;-8.43;79.96
72380;SHT30;60354;47.798;12.472;2022-12-18T08:21:13;-8.25;85.63
72380;SHT30;60354;47.798;12.472;2022-12-18T08:23:39;-7.95;85.18
72380;SHT30;60354;47.798;12.472;2022-12-18T08:26:05;-8.08;80.67
72380;SHT30;60354;47.798;12.472;2022-12-18T08:28:31;-7.87;81.81
72380;SHT30;60354;47.798;12.472;2022-12-18T08:30:56;-7.73;80.98
72380;SHT30;60354;47.798;12.472;2022-12-18T08:33:22;-7.43;80.27
72380;SHT30;60354;47.798;12.472;2022-12-18T08:35:47;-7.31;79.59
72380;SHT30;60354;47.798;12.472;2022-12-18T08:38:13;-6.93;79.99
72380;SHT30;60354;47.798;12.472;2022-12-18T08:40:38;-6.65;80.23
72380;SHT30;60354;47.798;12.472;2022-12-18T08:43:04;-6.64;78.77
72380;SHT30;60354;47.798;12.472;2022-12-18T08:45:49;-6.45;78.82
72380;SHT30;60354;47.798;12.472;2022-12-18T08:48:15;-6.30;78.35
72380;SHT30;60354;47.798;12.472;2022-12-18T08:50:40;-6.26;78.08
72380;SHT30;60354;47.798;12.472;2022-12-18T08:53:06;-6.40;78.59
72380;SHT30;60354;47.798;12.472;2022-12-18T08:55:31;-6.31;78.31
72380;SHT30;60354;47.798;12.472;2022-12-18T08:57:57;-6.26;79.34
72380;SHT30;60354;47.798;12.472;2022-12-18T09:00:22;-6.31;79.10
72380;SHT30;60354;47.798;12.472;2022-12-18T09:02:48;-6.24;81.18
72380;SHT30;60354;47.798;12.472;2022-12-18T09:05:13;-6.16;81.76
72380;SHT30;60354;47.798;12.472;2022-12-18T09:07:39;-6.05;80.52
72380;SHT30;60354;47.798;12.472;2022-12-18T09:10:05;-5.82;80.42
72380;SHT30;60354;47.798;12.472;2022-12-18T09:12:30;-5.76;80.19
72380;SHT30;60354;47.798;12.472;2022-12-18T09:14:56;-5.68;82.27
72380;SHT30;60354;47.798;12.472;2022-12-18T09:17:22;-5.61;81.14
72380;SHT30;60354;47.798;12.472;2022-12-18T09:19:48;-5.45;83.37
72380;SHT30;60354;47.798;12.472;2022-12-18T09:22:13;-5.41;81.50
72380;SHT30;60354;47.798;12.472;2022-12-18T09:24:38;-5.35;79.69
72380;SHT30;60354;47.798;12.472;2022-12-18T09:27:04;-5.30;78.32
72380;SHT30;60354;47.798;12.472;2022-12-18T09:29:30;-5.23;78.46
72380;SHT30;60354;47.798;12.472;2022-12-18T09:31:55;-5.10;78.00
72380;SHT30;60354;47.798;12.472;2022-12-18T09:34:21;-4.97;79.14
72380;SHT30;60354;47.798;12.472;2022-12-18T09:36:47;-4.96;78.91
72380;SHT30;60354;47.798;12.472;2022-12-18T09:39:13;-4.92;79.01
72380;SHT30;60354;47.798;12.472;2022-12-18T09:41:45;-4.77;79.45
72380;SHT30;60354;47.798;12.472;2022-12-18T09:46:47;-4.58;79.82
72380;SHT30;60354;47.798;12.472;2022-12-18T09:49:19;-4.52;78.43
72380;SHT30;60354;47.798;12.472;2022-12-18T09:51:51;-4.38;79.58
72380;SHT30;60354;47.798;12.472;2022-12-18T09:54:38;-4.21;79.71
72380;SHT30;60354;47.798;12.472;2022-12-18T09:57:13;-4.17;79.55
72380;SHT30;60354;47.798;12.472;2022-12-18T09:59:40;-4.29;79.86
72380;SHT30;60354;47.798;12.472;2022-12-18T10:02:18;-4.49;79.37
72380;SHT30;60354;47.798;12.472;2022-12-18T10:05:11;-4.38;79.62
72380;SHT30;60354;47.798;12.472;2022-12-18T10:10:52;-4.48;79.49
72380;SHT30;60354;47.798;12.472;2022-12-18T10:13:31;-4.41;81.54
72380;SHT30;60354;47.798;12.472;2022-12-18T10:19:03;-4.05;80.58
72380;SHT30;60354;47.798;12.472;2022-12-18T10:24:08;-4.01;81.53
72380;SHT30;60354;47.798;12.472;2022-12-18T10:26:38;-4.14;81.39
72380;SHT30;60354;47.798;12.472;2022-12-18T10:29:13;-4.41;80.37
72380;SHT30;60354;47.798;12.472;2022-12-18T10:31:39;-4.51;80.85
72380;SHT30;60354;47.798;12.472;2022-12-18T10:34:09;-4.41;81.31
72380;SHT30;60354;47.798;12.472;2022-12-18T10:36:35;-4.36;81.08
72380;SHT30;60354;47.798;12.472;2022-12-18T10:39:20;-4.28;81.15
72380;SHT30;60354;47.798;12.472;2022-12-18T10:41:47;-4.04;80.50
72380;SHT30;60354;47.798;12.472;2022-12-18T10:44:21;-4.10;80.88
72380;SHT30;60354;47.798;12.472;2022-12-18T10:46:54;-3.87;81.50
72380;SHT30;60354;47.798;12.472;2022-12-18T10:49:24;-3.74;79.69
72380;SHT30;60354;47.798;12.472;2022-12-18T10:51:51;-3.72;78.75
72380;SHT30;60354;47.798;12.472;2022-12-18T10:54:26;-3.55;79.33
72380;SHT30;60354;47.798;12.472;2022-12-18T10:59:58;-3.56;80.31
72380;SHT30;60354;47.798;12.472;2022-12-18T11:02:34;-3.73;79.97
72380;SHT30;60354;47.798;12.472;2022-12-18T11:05:01;-3.91;79.19
72380;SHT30;60354;47.798;12.472;2022-12-18T11:07:47;-3.93;79.50
72380;SHT30;60354;47.798;12.472;2022-12-18T11:10:18;-3.98;80.76
72380;SHT30;60354;47.798;12.472;2022-12-18T11:12:44;-3.79;81.37
72380;SHT30;60354;47.798;12.472;2022-12-18T11:15:36;-3.62;79.49
72380;SHT30;60354;47.798;12.472;2022-12-18T11:18:01;-3.74;79.89
72380;SHT30;60354;47.798;12.472;2022-12-18T11:22:57;-3.45;79.33
72380;SHT30;60354;47.798;12.472;2022-12-18T11:25:23;-3.39;79.70
72380;SHT30;60354;47.798;12.472;2022-12-18T11:27:55;-3.36;79.77
72380;SHT30;60354;47.798;12.472;2022-12-18T11:30:23;-3.19;79.98
72380;SHT30;60354;47.798;12.472;2022-12-18T11:33:12;-3.12;79.53
72380;SHT30;60354;47.798;12.472;2022-12-18T11:38:24;-2.87;79.87
72380;SHT30;60354;47.798;12.472;2022-12-18T11:43:50;-3.15;80.89
72380;SHT30;60354;47.798;12.472;2022-12-18T11:46:44;-3.09;81.71
72380;SHT30;60354;47.798;12.472;2022-12-18T11:49:24;-3.15;81.08
72380;SHT30;60354;47.798;12.472;2022-12-18T11:54:34;-2.83;81.73
72380;SHT30;60354;47.798;12.472;2022-12-18T12:08:11;-2.54;79.34
72380;SHT30;60354;47.798;12.472;2022-12-18T12:22:09;-2.42;79.87
72380;SHT30;60354;47.798;12.472;2022-12-18T12:38:25;-2.25;79.64
72380;SHT30;60354;47.798;12.472;2022-12-18T12:40:59;-2.29;78.97
72380;SHT30;60354;47.798;12.472;2022-12-18T12:43:42;-2.28;79.24
72380;SHT30;60354;47.798;12.472;2022-12-18T12:46:10;-2.33;79.39
72380;SHT30;60354;47.798;12.472;2022-12-18T12:48:43;-2.42;79.46
72380;SHT30;60354;47.798;12.472;2022-12-18T12:51:17;-2.40;79.48
72380;SHT30;60354;47.798;12.472;2022-12-18T12:53:44;-2.39;80.61
72380;SHT30;60354;47.798;12.472;2022-12-18T12:56:13;-2.61;81.34
72380;SHT30;60354;47.798;12.472;2022-12-18T12:58:50;-2.52;80.55
72380;SHT30;60354;47.798;12.472;2022-12-18T13:09:23;-2.69;81.23
72380;SHT30;60354;47.798;12.472;2022-12-18T13:11:48;-2.60;82.01
72380;SHT30;60354;47.798;12.472;2022-12-18T13:17:35;-2.64;81.58
72380;SHT30;60354;47.798;12.472;2022-12-18T13:22:38;-2.12;86.52
72380;SHT30;60354;47.798;12.472;2022-12-18T13:25:28;-2.42;80.93
72380;SHT30;60354;47.798;12.472;2022-12-18T13:28:09;-2.52;82.02
72380;SHT30;60354;47.798;12.472;2022-12-18T13:36:02;-2.66;83.11
72380;SHT30;60354;47.798;12.472;2022-12-18T13:38:36;-2.61;83.10
72380;SHT30;60354;47.798;12.472;2022-12-18T13:41:25;-2.79;83.12
72380;SHT30;60354;47.798;12.472;2022-12-18T13:43:52;-2.71;82.93
72380;SHT30;60354;47.798;12.472;2022-12-18T13:46:44;-2.66;82.96
72380;SHT30;60354;47.798;12.472;2022-12-18T13:51:51;-2.61;81.69
72380;SHT30;60354;47.798;12.472;2022-12-18T13:54:39;-2.67;82.02
72380;SHT30;60354;47.798;12.472;2022-12-18T13:59:50;-2.57;82.07
72380;SHT30;60354;47.798;12.472;2022-12-18T14:02:18;-2.54;82.41
72380;SHT30;60354;47.798;12.472;2022-12-18T14:04:46;-2.56;81.88
72380;SHT30;60354;47.798;12.472;2022-12-18T14:07:14;-2.60;81.62
72380;SHT30;60354;47.798;12.472;2022-12-18T14:09:43;-2.56;81.91
72380;SHT30;60354;47.798;12.472;2022-12-18T14:12:22;-2.64;82.60
72380;SHT30;60354;47.798;12.472;2022-12-18T14:18:01;-2.76;83.39
72380;SHT30;60354;47.798;12.472;2022-12-18T14:20:29;-2.81;82.97
72380;SHT30;60354;47.798;12.472;2022-12-18T14:22:56;-2.87;83.50
72380;SHT30;60354;47.798;12.472;2022-12-18T14:25:27;-2.90;83.43
72380;SHT30;60354;47.798;12.472;2022-12-18T14:28:12;-3.01;84.31
72380;SHT30;60354;47.798;12.472;2022-12-18T14:30:43;-3.04;83.31
72380;SHT30;60354;47.798;12.472;2022-12-18T14:35:39;-3.09;84.07
72380;SHT30;60354;47.798;12.472;2022-12-18T14:41:14;-3.21;84.48
72380;SHT30;60354;47.798;12.472;2022-12-18T14:43:42;-3.13;85.67
72380;SHT30;60354;47.798;12.472;2022-12-18T14:46:37;-3.22;85.00
72380;SHT30;60354;47.798;12.472;2022-12-18T14:49:34;-3.34;84.96
72380;SHT30;60354;47.798;12.472;2022-12-18T14:52:02;-3.38;85.31
72380;SHT30;60354;47.798;12.472;2022-12-18T14:54:29;-3.42;85.65
72380;SHT30;60354;47.798;12.472;2022-12-18T14:57:00;-3.49;84.59
72380;SHT30;60354;47.798;12.472;2022-12-18T14:59:26;-3.42;84.56
72380;SHT30;60354;47.798;12.472;2022-12-18T15:04:44;-3.60;84.72
72380;SHT30;60354;47.798;12.472;2022-12-18T15:09:35;-3.66;84.56
72380;SHT30;60354;47.798;12.472;2022-12-18T15:12:01;-3.64;85.34
72380;SHT30;60354;47.798;12.472;2022-12-18T15:16:56;-3.66;83.93
72380;SHT30;60354;47.798;12.472;2022-12-18T15:19:41;-3.77;84.64
72380;SHT30;60354;47.798;12.472;2022-12-18T15:22:28;-3.80;86.57
72380;SHT30;60354;47.798;12.472;2022-12-18T15:24:55;-3.89;85.16
72380;SHT30;60354;47.798;12.472;2022-12-18T15:32:27;-4.01;85.53
72380;SHT30;60354;47.798;12.472;2022-12-18T15:35:13;-4.07;84.92
72380;SHT30;60354;47.798;12.472;2022-12-18T15:37:39;-4.00;86.70
72380;SHT30;60354;47.798;12.472;2022-12-18T15:40:05;-4.00;85.20
72380;SHT30;60354;47.798;12.472;2022-12-18T15:42:31;-4.05;83.49
72380;SHT30;60354;47.798;12.472;2022-12-18T15:45:15;-4.10;84.05
72380;SHT30;60354;47.798;12.472;2022-12-18T15:47:40;-4.22;83.59
72380;SHT30;60354;47.798;12.472;2022-12-18T15:50:09;-4.21;86.14
72380;SHT30;60354;47.798;12.472;2022-12-18T15:52:46;-4.21;84.82
72380;SHT30;60354;47.798;12.472;2022-12-18T15:55:23;-4.31;84.97
72380;SHT30;60354;47.798;12.472;2022-12-18T15:58:09;-4.53;86.31
72380;SHT30;60354;47.798;12.472;2022-12-18T16:00:37;-4.55;86.34
72380;SHT30;60354;47.798;12.472;2022-12-18T16:03:04;-4.58;84.44
72380;SHT30;60354;47.798;12.472;2022-12-18T16:05:30;-4.66;86.36
72380;SHT30;60354;47.798;12.472;2022-12-18T16:07:56;-4.72;85.10
72380;SHT30;60354;47.798;12.472;2022-12-18T16:10:22;-4.80;85.81
72380;SHT30;60354;47.798;12.472;2022-12-18T16:12:48;-4.75;84.80
72380;SHT30;60354;47.798;12.472;2022-12-18T16:15:15;-4.92;85.80
72380;SHT30;60354;47.798;12.472;2022-12-18T16:17:45;-4.90;83.64
72380;SHT30;60354;47.798;12.472;2022-12-18T16:20:19;-4.90;84.73
72380;SHT30;60354;47.798;12.472;2022-12-18T16:22:46;-5.08;83.83
72380;SHT30;60354;47.798;12.472;2022-12-18T16:25:27;-4.99;84.56
72380;SHT30;60354;47.798;12.472;2022-12-18T16:27:53;-5.00;83.96
72380;SHT30;60354;47.798;12.472;2022-12-18T16:30:26;-5.03;83.61
72380;SHT30;60354;47.798;12.472;2022-12-18T16:32:53;-4.92;83.32
72380;SHT30;60354;47.798;12.472;2022-12-18T16:35:19;-4.97;83.75
72380;SHT30;60354;47.798;12.472;2022-12-18T16:37:45;-5.17;85.75
72380;SHT30;60354;47.798;12.472;2022-12-18T16:40:14;-5.25;86.59
72380;SHT30;60354;47.798;12.472;2022-12-18T16:42:41;-5.30;84.40
72380;SHT30;60354;47.798;12.472;2022-12-18T16:45:09;-5.23;84.21
72380;SHT30;60354;47.798;12.472;2022-12-18T16:47:35;-5.21;84.51
72380;SHT30;60354;47.798;12.472;2022-12-18T16:50:00;-5.31;85.80
72380;SHT30;60354;47.798;12.472;2022-12-18T16:52:27;-5.38;86.09
72380;SHT30;60354;47.798;12.472;2022-12-18T16:54:54;-5.48;86.14
72380;SHT30;60354;47.798;12.472;2022-12-18T16:57:20;-5.51;84.78
72380;SHT30;60354;47.798;12.472;2022-12-18T16:59:46;-5.51;83.79
72380;SHT30;60354;47.798;12.472;2022-12-18T17:02:16;-5.41;84.40
72380;SHT30;60354;47.798;12.472;2022-12-18T17:04:42;-5.48;84.68
72380;SHT30;60354;47.798;12.472;2022-12-18T17:07:08;-5.48;83.73
72380;SHT30;60354;47.798;12.472;2022-12-18T17:09:34;-5.41;83.80
72380;SHT30;60354;47.798;12.472;2022-12-18T17:11:59;-5.48;83.92
72380;SHT30;60354;47.798;12.472;2022-12-18T17:14:26;-5.69;83.77
72380;SHT30;60354;47.798;12.472;2022-12-18T17:16:52;-5.69;84.79
72380;SHT30;60354;47.798;12.472;2022-12-18T17:19:18;-5.75;83.92
72380;SHT30;60354;47.798;12.472;2022-12-18T17:21:47;-5.62;85.24
72380;SHT30;60354;47.798;12.472;2022-12-18T17:24:13;-5.59;84.00
72380;SHT30;60354;47.798;12.472;2022-12-18T17:26:38;-5.69;82.79
72380;SHT30;60354;47.798;12.472;2022-12-18T17:29:04;-5.50;85.26
72380;SHT30;60354;47.798;12.472;2022-12-18T17:31:30;-5.48;83.15
72380;SHT30;60354;47.798;12.472;2022-12-18T17:33:56;-5.52;84.35
72380;SHT30;60354;47.798;12.472;2022-12-18T17:36:22;-5.58;83.87
72380;SHT30;60354;47.798;12.472;2022-12-18T17:38:52;-5.54;85.76
72380;SHT30;60354;47.798;12.472;2022-12-18T17:41:18;-5.58;82.71
72380;SHT30;60354;47.798;12.472;2022-12-18T17:46:17;-5.82;83.24
72380;SHT30;60354;47.798;12.472;2022-12-18T17:48:43;-5.82;84.12
72380;SHT30;60354;47.798;12.472;2022-12-18T17:51:09;-5.89;81.06
72380;SHT30;60354;47.798;12.472;2022-12-18T17:53:36;-5.99;82.25
72380;SHT30;60354;47.798;12.472;2022-12-18T17:56:04;-5.99;84.80
72380;SHT30;60354;47.798;12.472;2022-12-18T17:58:32;-6.16;82.23
72380;SHT30;60354;47.798;12.472;2022-12-18T18:00:58;-6.21;82.52
72380;SHT30;60354;47.798;12.472;2022-12-18T18:03:24;-6.36;82.56
72380;SHT30;60354;47.798;12.472;2022-12-18T18:06:00;-6.23;84.70